createdAt,value
2019-06-15T10:31:31.671Z,24.00
2019-06-15T10:34:00.590Z,24.00
2019-06-15T10:36:28.232Z,23.80
2019-06-15T10:38:55.830Z,23.80
2019-06-15T10:41:23.384Z,23.90
2019-06-15T10:43:51.562Z,24.00
2019-06-15T10:46:19.308Z,24.10
2019-06-15T10:48:47.068Z,24.40
2019-06-15T10:51:14.996Z,24.60
2019-06-15T10:53:42.722Z,24.80
2019-06-15T10:56:10.363Z,24.80
2019-06-15T10:58:38.248Z,24.40
2019-06-15T11:01:06.786Z,24.40
2019-06-15T11:03:35.463Z,23.80
2019-06-15T11:06:03.052Z,23.70
2019-06-15T11:08:31.895Z,23.80
2019-06-15T11:11:12.775Z,24.20
2019-06-15T11:13:40.520Z,24.50
2019-06-15T11:16:08.042Z,24.40
2019-06-15T11:18:36.475Z,24.40
2019-06-15T11:21:04.063Z,24.40
2019-06-15T11:23:31.636Z,24.30
2019-06-15T11:25:59.358Z,24.40
2019-06-15T11:28:26.898Z,24.50
2019-06-15T11:30:54.471Z,24.80
2019-06-15T11:33:22.050Z,24.80
2019-06-15T11:35:49.846Z,24.50
2019-06-15T11:38:17.471Z,24.30
2019-06-15T11:40:45.139Z,24.30
2019-06-15T11:43:13.311Z,24.70
2019-06-15T11:45:40.902Z,25.00
2019-06-15T11:48:08.456Z,25.00
2019-06-15T11:50:36.039Z,24.40
2019-06-15T11:53:03.793Z,24.00
2019-06-15T11:55:39.592Z,24.00
2019-06-15T11:58:01.588Z,24.10
2019-06-15T12:00:32.796Z,24.80
2019-06-15T12:03:00.402Z,25.30
2019-06-15T12:05:28.343Z,25.10
2019-06-15T12:07:55.953Z,25.30
2019-06-15T12:10:25.044Z,25.00
2019-06-15T12:12:52.809Z,25.00
2019-06-15T12:15:20.762Z,25.20
2019-06-15T12:17:48.276Z,25.40
2019-06-15T12:20:16.012Z,26.00
2019-06-15T12:22:43.853Z,26.10
2019-06-15T12:25:11.616Z,26.20
2019-06-15T12:27:39.286Z,25.70
2019-06-15T12:30:09.202Z,25.80
2019-06-15T12:32:36.840Z,25.60
2019-06-15T12:35:04.550Z,25.10
2019-06-15T12:37:32.614Z,24.80
2019-06-15T12:40:00.189Z,24.80
2019-06-15T12:42:27.740Z,24.60
2019-06-15T12:44:55.427Z,25.00
2019-06-15T12:47:23.302Z,25.60
2019-06-15T12:49:50.915Z,25.80
2019-06-15T12:52:19.045Z,26.00
2019-06-15T12:54:46.731Z,26.10
2019-06-15T12:57:14.661Z,26.40
2019-06-15T12:59:42.364Z,26.50
2019-06-15T13:02:09.900Z,26.40
2019-06-15T13:04:37.548Z,26.30
2019-06-15T13:07:05.184Z,26.30
2019-06-15T13:09:33.103Z,26.80
2019-06-15T13:12:00.755Z,27.30
2019-06-15T13:14:28.367Z,27.10
2019-06-15T13:16:55.871Z,26.50
2019-06-15T13:19:23.601Z,26.50
2019-06-15T13:21:51.069Z,26.60
2019-06-15T13:24:18.913Z,26.00
2019-06-15T13:26:46.620Z,25.90
2019-06-15T13:29:14.282Z,26.00
2019-06-15T13:31:42.169Z,26.00
2019-06-15T13:34:09.821Z,26.00
2019-06-15T13:36:37.772Z,25.80
2019-06-15T13:39:06.975Z,26.40
2019-06-15T13:41:34.939Z,26.90
2019-06-15T13:44:02.881Z,27.10
2019-06-15T13:46:30.760Z,27.20
2019-06-15T13:48:58.983Z,27.10
2019-06-15T13:51:27.596Z,27.50
2019-06-15T13:53:55.086Z,27.30
2019-06-15T13:56:22.633Z,27.30
2019-06-15T13:58:50.334Z,27.00
2019-06-15T14:01:33.284Z,26.30
2019-06-15T14:03:49.487Z,26.00
2019-06-15T14:06:17.912Z,26.00
2019-06-15T14:08:45.689Z,26.00
2019-06-15T14:11:13.740Z,25.90
2019-06-15T14:13:41.252Z,26.10
2019-06-15T14:16:08.866Z,26.60
2019-06-15T14:18:36.439Z,26.70
2019-06-15T14:21:03.985Z,27.00
2019-06-15T14:23:31.667Z,27.10
2019-06-15T14:25:59.174Z,25.90
2019-06-15T14:28:26.784Z,26.10
2019-06-15T14:30:54.700Z,26.60
2019-06-15T14:33:22.328Z,26.80
2019-06-15T14:35:49.970Z,27.10
2019-06-15T14:38:17.560Z,27.40
2019-06-15T14:40:45.182Z,27.60
2019-06-15T14:43:12.745Z,27.50
2019-06-15T14:45:40.339Z,27.40
2019-06-15T14:48:07.895Z,27.50
2019-06-15T14:50:35.675Z,27.40
2019-06-15T14:53:03.294Z,27.40
2019-06-15T14:55:30.772Z,27.40
2019-06-15T14:57:58.344Z,27.70
2019-06-15T15:00:25.857Z,27.50
2019-06-15T15:02:55.818Z,27.70
2019-06-15T15:05:23.034Z,27.70
2019-06-15T15:07:52.319Z,27.70
2019-06-15T15:10:20.400Z,27.80
2019-06-15T15:12:48.107Z,27.80
2019-06-15T15:15:17.162Z,27.80
2019-06-15T15:17:46.014Z,27.90
2019-06-15T15:20:14.275Z,27.90
2019-06-15T15:22:41.879Z,27.60
2019-06-15T15:25:10.027Z,27.70
2019-06-15T15:27:37.807Z,27.80
2019-06-15T15:30:06.259Z,27.50
2019-06-15T15:32:36.826Z,27.60
2019-06-15T15:35:06.459Z,27.60
2019-06-15T15:37:33.766Z,27.80
2019-06-15T15:40:01.597Z,27.70
2019-06-15T15:42:29.259Z,27.50
2019-06-15T15:44:56.928Z,27.60
2019-06-15T15:47:27.040Z,27.80
2019-06-15T15:49:54.189Z,27.60
2019-06-15T15:52:21.825Z,27.40
2019-06-15T15:54:49.297Z,27.20
2019-06-15T15:57:17.283Z,26.90
2019-06-15T15:59:46.798Z,26.70
2019-06-15T16:02:16.089Z,26.70
2019-06-15T16:04:43.720Z,26.90
2019-06-15T16:07:11.455Z,27.10
2019-06-15T16:09:39.041Z,27.00
2019-06-15T16:12:07.038Z,26.70
2019-06-15T16:14:36.950Z,26.50
2019-06-15T16:17:06.580Z,26.40
2019-06-15T16:19:34.026Z,26.60
2019-06-15T16:22:01.734Z,26.80
2019-06-15T16:24:29.266Z,26.90
2019-06-15T16:26:57.057Z,27.10
2019-06-15T16:29:24.566Z,27.40
2019-06-15T16:31:52.103Z,27.10
2019-06-15T16:34:19.551Z,26.90
2019-06-15T16:36:47.309Z,26.90
2019-06-15T16:39:16.701Z,27.10
2019-06-15T16:41:46.783Z,27.30
2019-06-15T16:44:13.872Z,27.40
2019-06-15T16:46:41.315Z,27.50
2019-06-15T16:49:08.928Z,27.70
2019-06-15T16:51:36.545Z,27.60
2019-06-15T16:54:06.282Z,27.00
2019-06-15T16:56:35.968Z,26.80
2019-06-15T16:59:03.373Z,27.10
2019-06-15T17:01:30.880Z,27.70
2019-06-15T17:03:58.499Z,28.00
2019-06-15T17:06:26.875Z,28.10
2019-06-15T17:08:56.658Z,28.20
2019-06-15T17:11:26.210Z,28.10
2019-06-15T17:13:56.140Z,27.90
2019-06-15T17:16:23.177Z,27.70
2019-06-15T17:18:50.976Z,27.60
2019-06-15T17:21:18.461Z,27.70
2019-06-15T17:23:46.708Z,27.80
2019-06-15T17:26:16.889Z,27.80
2019-06-15T17:28:45.994Z,27.70
2019-06-15T17:31:16.414Z,27.50
2019-06-15T17:33:43.495Z,27.50
2019-06-15T17:36:10.995Z,26.90
2019-06-15T17:38:38.449Z,26.80
2019-06-15T17:41:05.967Z,26.30
2019-06-15T17:43:33.464Z,26.00
2019-06-15T17:46:01.071Z,25.90
2019-06-15T17:48:28.614Z,26.00
2019-06-15T17:50:57.215Z,26.00
2019-06-15T17:53:26.364Z,25.80
2019-06-15T17:55:56.110Z,25.40
2019-06-15T17:58:26.039Z,25.30
2019-06-15T18:00:53.163Z,25.30
2019-06-15T18:03:21.081Z,25.00
2019-06-15T18:05:48.666Z,24.80
2019-06-15T18:08:16.696Z,24.80
2019-06-15T18:10:47.190Z,24.80
2019-06-15T18:13:16.589Z,24.70
2019-06-15T18:15:43.420Z,24.70
2019-06-15T18:18:11.542Z,24.60
2019-06-15T18:20:39.304Z,24.50
2019-06-15T18:23:06.935Z,24.40
2019-06-15T18:25:37.058Z,24.30
2019-06-15T18:28:06.450Z,24.30
2019-06-15T18:30:33.857Z,24.20
2019-06-15T18:33:01.408Z,24.10
2019-06-15T18:35:30.482Z,24.00
2019-06-15T18:37:58.014Z,23.80
2019-06-15T18:40:26.974Z,23.60
2019-06-15T18:42:55.941Z,23.50
2019-06-15T18:45:24.090Z,23.40
2019-06-15T18:47:51.581Z,23.30
2019-06-15T18:50:39.344Z,23.20
2019-06-15T18:53:08.206Z,23.20
2019-06-15T18:55:36.431Z,22.90
2019-06-15T18:58:04.977Z,22.90
2019-06-15T19:00:32.371Z,22.70
2019-06-15T19:03:00.491Z,22.50
2019-06-15T19:05:27.861Z,22.40
2019-06-15T19:07:56.710Z,22.40
2019-06-15T19:10:31.036Z,22.40
2019-06-15T19:12:58.565Z,22.50
2019-06-15T19:15:26.169Z,22.40
2019-06-15T19:17:55.974Z,22.40
2019-06-15T19:20:26.309Z,22.30
2019-06-15T19:22:53.133Z,22.20
2019-06-15T19:25:20.745Z,22.10
2019-06-15T19:27:48.491Z,22.10
2019-06-15T19:30:16.139Z,22.10
2019-06-15T19:32:46.264Z,22.00
2019-06-15T19:35:13.550Z,21.90
2019-06-15T19:37:41.524Z,21.80
2019-06-15T19:40:09.598Z,21.60
2019-06-15T19:42:37.002Z,21.50
2019-06-15T19:45:10.085Z,21.60
2019-06-15T19:47:37.720Z,21.30
2019-06-15T19:50:06.673Z,21.10
2019-06-15T19:52:36.085Z,21.10
2019-06-15T19:55:06.599Z,21.20
2019-06-15T19:57:36.015Z,21.00
2019-06-15T20:00:03.527Z,21.10
2019-06-15T20:02:31.163Z,20.90
2019-06-15T20:05:03.520Z,20.70
2019-06-15T20:07:28.296Z,20.70
2019-06-15T20:09:57.010Z,20.60
2019-06-15T20:12:26.487Z,20.50
2019-06-15T20:14:56.595Z,20.40
2019-06-15T20:17:24.023Z,20.10
2019-06-15T20:19:51.374Z,20.00
2019-06-15T20:22:18.934Z,19.90
2019-06-15T20:24:47.445Z,19.70
2019-06-15T20:27:16.440Z,19.90
2019-06-15T20:29:44.412Z,19.80
2019-06-15T20:32:12.117Z,19.70
2019-06-15T20:34:39.713Z,19.50
2019-06-15T20:37:07.486Z,19.70
2019-06-15T20:39:36.307Z,19.70
2019-06-15T20:42:03.990Z,19.80
2019-06-15T20:44:31.456Z,19.80
2019-06-15T20:46:59.134Z,19.70
2019-06-15T20:49:26.744Z,19.60
2019-06-15T20:51:56.127Z,19.70
2019-06-15T20:54:23.611Z,19.70
2019-06-15T20:56:51.305Z,19.80
2019-06-15T20:59:18.813Z,19.70
2019-06-15T21:01:46.275Z,19.50
2019-06-15T21:04:16.155Z,19.40
2019-06-15T21:06:50.667Z,19.50
2019-06-15T21:09:18.860Z,19.60
2019-06-15T21:11:47.016Z,19.50
2019-06-15T21:14:14.743Z,19.80
2019-06-15T21:16:42.548Z,19.80
2019-06-15T21:19:10.071Z,20.00
2019-06-15T21:21:37.672Z,19.90
2019-06-15T21:24:06.339Z,20.10
2019-06-15T21:26:34.838Z,20.00
2019-06-15T21:29:03.028Z,20.00
2019-06-15T21:31:30.970Z,20.10
2019-06-15T21:33:59.034Z,20.00
2019-06-15T21:36:27.208Z,19.90
2019-06-15T21:38:56.314Z,20.00
2019-06-15T21:41:26.142Z,20.00
2019-06-15T21:43:56.544Z,19.90
2019-06-15T21:46:26.526Z,19.90
2019-06-15T21:48:53.386Z,19.90
2019-06-15T21:51:21.724Z,20.00
2019-06-15T21:53:49.756Z,19.90
2019-06-15T21:56:17.566Z,20.00
2019-06-15T21:58:45.157Z,19.90
2019-06-15T22:01:26.059Z,19.80
2019-06-15T22:03:53.486Z,19.70
2019-06-15T22:06:21.461Z,19.50
2019-06-15T22:08:49.585Z,19.50
2019-06-15T22:11:17.225Z,19.50
2019-06-15T22:13:46.398Z,19.50
2019-06-15T22:16:16.859Z,19.50
2019-06-15T22:18:47.189Z,19.50
2019-06-15T22:21:16.140Z,19.60
2019-06-15T22:23:47.094Z,19.60
2019-06-15T22:26:16.894Z,19.70
2019-06-15T22:28:47.201Z,19.90
2019-06-15T22:31:17.124Z,20.00
2019-06-15T22:33:47.190Z,19.90
2019-06-15T22:36:22.330Z,19.80
2019-06-15T22:38:46.182Z,19.90
2019-06-15T22:41:13.840Z,19.70
2019-06-15T22:43:41.514Z,19.50
2019-06-15T22:46:09.029Z,19.50
2019-06-15T22:48:36.839Z,19.60
2019-06-15T22:51:06.137Z,19.80
2019-06-15T22:53:36.491Z,19.90
2019-06-15T22:56:06.341Z,19.70
2019-06-15T22:58:34.288Z,19.80
2019-06-15T23:01:02.246Z,19.90
2019-06-15T23:03:29.980Z,19.70
2019-06-15T23:05:57.795Z,19.60
2019-06-15T23:08:25.316Z,19.60
2019-06-15T23:10:52.725Z,19.50
2019-06-15T23:13:20.222Z,19.40
2019-06-15T23:15:47.679Z,19.30
2019-06-15T23:18:17.221Z,19.40
2019-06-15T23:20:46.198Z,19.50
2019-06-15T23:23:16.014Z,19.60
2019-06-15T23:25:43.542Z,19.50
2019-06-15T23:28:11.239Z,19.50
2019-06-15T23:30:38.772Z,19.50
2019-06-15T23:33:06.641Z,19.50
2019-06-15T23:35:39.973Z,19.50
2019-06-15T23:38:07.615Z,19.40
2019-06-15T23:40:36.076Z,19.40
2019-06-15T23:43:06.099Z,19.40
2019-06-15T23:45:33.028Z,19.30
2019-06-15T23:48:00.583Z,19.30
2019-06-15T23:50:28.314Z,19.20
2019-06-15T23:52:55.713Z,19.10
2019-06-15T23:55:23.367Z,19.00
2019-06-15T23:57:50.862Z,19.00
